SKU606 SCTE-SCEL
Flight info
| Callsign | SKU606 |
|---|---|
| Flight time | 1h 29m |
| Altitude | 36000 |
| Route | ANROS6A ANROS UQ802 EROLO EROLO7F |
| Aircraft | A21N/M-SDE2E3FGHIRWXY/LB1 |
Departure
| Time | 2026-04-25 00:23 |
|---|---|
| Airport | El Tepual International Airport (SCTE) |
Arrival
| Time | 2026-04-25 01:52 |
|---|---|
| Airport | Comodoro Arturo Merino Benítez International Airport (SCEL) |
| Time | Latitude | Longitude | Altitude | Speed | Heading |
|---|---|---|---|---|---|
| 2026-04-25 00:10 | -41.43368 | -73.09744 | 307 ft | 0 kts | 270° |
| 2026-04-25 00:13 | -41.43368 | -73.09714 | 307 ft | 3 kts | 269° |
| 2026-04-25 00:13 | -41.43368 | -73.09682 | 307 ft | 3 kts | 267° |
| 2026-04-25 00:13 | -41.43366 | -73.09650 | 307 ft | 3 kts | 261° |
| 2026-04-25 00:14 | -41.43360 | -73.09619 | 307 ft | 3 kts | 244° |
| 2026-04-25 00:14 | -41.43348 | -73.09598 | 309 ft | 3 kts | 194° |
| 2026-04-25 00:14 | -41.43343 | -73.09597 | 308 ft | 0 kts | 181° |
| 2026-04-25 00:17 | -41.43345 | -73.09597 | 308 ft | 1 kts | 181° |
| 2026-04-25 00:17 | -41.43361 | -73.09597 | 307 ft | 3 kts | 181° |
| 2026-04-25 00:18 | -41.43392 | -73.09598 | 308 ft | 6 kts | 181° |
| 2026-04-25 00:18 | -41.43438 | -73.09600 | 307 ft | 8 kts | 181° |
| 2026-04-25 00:18 | -41.43499 | -73.09602 | 308 ft | 10 kts | 181° |
| 2026-04-25 00:18 | -41.43574 | -73.09604 | 308 ft | 12 kts | 181° |
| 2026-04-25 00:19 | -41.43663 | -73.09607 | 306 ft | 14 kts | 181° |
| 2026-04-25 00:19 | -41.43764 | -73.09612 | 306 ft | 15 kts | 181° |
| 2026-04-25 00:19 | -41.43875 | -73.09616 | 307 ft | 17 kts | 182° |
| 2026-04-25 00:19 | -41.43999 | -73.09621 | 306 ft | 19 kts | 181° |
| 2026-04-25 00:20 | -41.44134 | -73.09626 | 307 ft | 20 kts | 181° |
| 2026-04-25 00:20 | -41.44278 | -73.09631 | 306 ft | 21 kts | 181° |
| 2026-04-25 00:20 | -41.44433 | -73.09635 | 306 ft | 23 kts | 182° |
| 2026-04-25 00:20 | -41.44598 | -73.09642 | 305 ft | 25 kts | 181° |
| 2026-04-25 00:21 | -41.44775 | -73.09648 | 306 ft | 26 kts | 181° |
| 2026-04-25 00:21 | -41.44912 | -73.09652 | 308 ft | 14 kts | 181° |
| 2026-04-25 00:21 | -41.45013 | -73.09655 | 309 ft | 12 kts | 181° |
| 2026-04-25 00:21 | -41.45068 | -73.09586 | 311 ft | 14 kts | 84° |
| 2026-04-25 00:22 | -41.45042 | -73.09447 | 316 ft | 17 kts | 24° |
| 2026-04-25 00:22 | -41.44883 | -73.09436 | 313 ft | 48 kts | 1° |
| 2026-04-25 00:22 | -41.44197 | -73.09412 | 292 ft | 145 kts | 1° |
| 2026-04-25 00:22 | -41.43034 | -73.09366 | 768 ft | 177 kts | 1° |
| 2026-04-25 00:23 | -41.41771 | -73.09340 | 1684 ft | 187 kts | 360° |
| 2026-04-25 00:23 | -41.40404 | -73.09303 | 2323 ft | 205 kts | 360° |
| 2026-04-25 00:23 | -41.38908 | -73.09254 | 2947 ft | 227 kts | 359° |
| 2026-04-25 00:23 | -41.37231 | -73.09198 | 3491 ft | 253 kts | 359° |
| 2026-04-25 00:24 | -41.35430 | -73.09141 | 4325 ft | 263 kts | 359° |
| 2026-04-25 00:24 | -41.33569 | -73.09076 | 5256 ft | 271 kts | 359° |
| 2026-04-25 00:24 | -41.31690 | -73.09011 | 6221 ft | 275 kts | 359° |
| 2026-04-25 00:24 | -41.29762 | -73.08943 | 7182 ft | 279 kts | 359° |
| 2026-04-25 00:25 | -41.27798 | -73.08874 | 8079 ft | 285 kts | 358° |
| 2026-04-25 00:25 | -41.25797 | -73.08752 | 9005 ft | 292 kts | 2° |
| 2026-04-25 00:25 | -41.23758 | -73.08362 | 9929 ft | 300 kts | 5° |
| 2026-04-25 00:25 | -41.21649 | -73.07897 | 10556 ft | 318 kts | 5° |
| 2026-04-25 00:26 | -41.19384 | -73.07398 | 10950 ft | 342 kts | 5° |
| 2026-04-25 00:26 | -41.16954 | -73.06872 | 11291 ft | 365 kts | 5° |
| 2026-04-25 00:26 | -41.14369 | -73.06312 | 11617 ft | 386 kts | 6° |
| 2026-04-25 00:26 | -41.11672 | -73.05725 | 12228 ft | 396 kts | 6° |
| 2026-04-25 00:27 | -41.08932 | -73.05124 | 13004 ft | 401 kts | 6° |
| 2026-04-25 00:27 | -41.06167 | -73.04523 | 13772 ft | 406 kts | 5° |
| 2026-04-25 00:27 | -41.03361 | -73.03917 | 14464 ft | 410 kts | 5° |
| 2026-04-25 00:27 | -41.00563 | -73.03314 | 15090 ft | 414 kts | 5° |
| 2026-04-25 00:28 | -40.97703 | -73.02700 | 15722 ft | 418 kts | 5° |
| 2026-04-25 00:28 | -40.94816 | -73.02082 | 16323 ft | 422 kts | 6° |
| 2026-04-25 00:28 | -40.91897 | -73.01458 | 16907 ft | 426 kts | 6° |
| 2026-04-25 00:28 | -40.88956 | -73.00829 | 17493 ft | 430 kts | 6° |
| 2026-04-25 00:29 | -40.85982 | -73.00195 | 18067 ft | 434 kts | 6° |
| 2026-04-25 00:29 | -40.82985 | -72.99555 | 18629 ft | 438 kts | 6° |
| 2026-04-25 00:29 | -40.79964 | -72.98909 | 19124 ft | 441 kts | 6° |
| 2026-04-25 00:29 | -40.76910 | -72.98260 | 19624 ft | 444 kts | 6° |
| 2026-04-25 00:30 | -40.73845 | -72.97606 | 20119 ft | 448 kts | 6° |
| 2026-04-25 00:30 | -40.70761 | -72.96951 | 20603 ft | 450 kts | 5° |
| 2026-04-25 00:30 | -40.67657 | -72.96291 | 21113 ft | 453 kts | 5° |
| 2026-04-25 00:30 | -40.64572 | -72.95633 | 21609 ft | 456 kts | 5° |
| 2026-04-25 00:31 | -40.61431 | -72.94966 | 22138 ft | 458 kts | 5° |
| 2026-04-25 00:31 | -40.58269 | -72.94298 | 22661 ft | 461 kts | 5° |
| 2026-04-25 00:31 | -40.55093 | -72.93624 | 23173 ft | 464 kts | 5° |
| 2026-04-25 00:31 | -40.51893 | -72.92949 | 23688 ft | 467 kts | 5° |
| 2026-04-25 00:32 | -40.48672 | -72.92264 | 24142 ft | 470 kts | 5° |
| 2026-04-25 00:32 | -40.45432 | -72.91573 | 24608 ft | 473 kts | 5° |
| 2026-04-25 00:32 | -40.42173 | -72.90884 | 25072 ft | 475 kts | 5° |
| 2026-04-25 00:32 | -40.38902 | -72.90197 | 25518 ft | 478 kts | 5° |
| 2026-04-25 00:33 | -40.35607 | -72.89501 | 25957 ft | 480 kts | 5° |
| 2026-04-25 00:33 | -40.32336 | -72.88891 | 26377 ft | 481 kts | 3° |
| 2026-04-25 00:33 | -40.29001 | -72.88344 | 26806 ft | 483 kts | 2° |
| 2026-04-25 00:33 | -40.25674 | -72.87806 | 27361 ft | 480 kts | 2° |
| 2026-04-25 00:34 | -40.22361 | -72.87272 | 27956 ft | 478 kts | 2° |
| 2026-04-25 00:34 | -40.19067 | -72.86736 | 28511 ft | 476 kts | 2° |
| 2026-04-25 00:34 | -40.15785 | -72.86200 | 29060 ft | 474 kts | 2° |
| 2026-04-25 00:34 | -40.12510 | -72.85666 | 29612 ft | 473 kts | 2° |
| 2026-04-25 00:35 | -40.09255 | -72.85137 | 30177 ft | 470 kts | 2° |
| 2026-04-25 00:35 | -40.06011 | -72.84609 | 30656 ft | 469 kts | 2° |
| 2026-04-25 00:35 | -40.02777 | -72.84087 | 31101 ft | 467 kts | 2° |
| 2026-04-25 00:35 | -39.99552 | -72.83560 | 31541 ft | 466 kts | 2° |
| 2026-04-25 00:36 | -39.96377 | -72.83044 | 31980 ft | 465 kts | 1° |
| 2026-04-25 00:36 | -39.93170 | -72.82520 | 32405 ft | 464 kts | 1° |
| 2026-04-25 00:36 | -39.89972 | -72.82001 | 32818 ft | 462 kts | 1° |
| 2026-04-25 00:36 | -39.86778 | -72.81486 | 33214 ft | 461 kts | 1° |
| 2026-04-25 00:37 | -39.83595 | -72.80970 | 33597 ft | 461 kts | 1° |
| 2026-04-25 00:37 | -39.80412 | -72.80459 | 33990 ft | 459 kts | 1° |
| 2026-04-25 00:37 | -39.77246 | -72.79949 | 34362 ft | 458 kts | 1° |
| 2026-04-25 00:37 | -39.74076 | -72.79435 | 34621 ft | 459 kts | 1° |
| 2026-04-25 00:38 | -39.70902 | -72.78924 | 34860 ft | 460 kts | 1° |
| 2026-04-25 00:38 | -39.67727 | -72.78367 | 35092 ft | 461 kts | 1° |
| 2026-04-25 00:38 | -39.64544 | -72.77771 | 35322 ft | 462 kts | 2° |
| 2026-04-25 00:38 | -39.61403 | -72.77183 | 35517 ft | 463 kts | 1° |
| 2026-04-25 00:39 | -39.58207 | -72.76592 | 35708 ft | 465 kts | 1° |
| 2026-04-25 00:39 | -39.55001 | -72.76006 | 35919 ft | 466 kts | 1° |
| 2026-04-25 00:39 | -39.51787 | -72.75424 | 36128 ft | 466 kts | 1° |
| 2026-04-25 00:39 | -39.48570 | -72.74842 | 36324 ft | 468 kts | 1° |
| 2026-04-25 00:40 | -39.42110 | -72.73667 | 36376 ft | 467 kts | 1° |
| 2026-04-25 00:40 | -39.35672 | -72.72501 | 36342 ft | 468 kts | 1° |
| 2026-04-25 00:41 | -39.29220 | -72.71329 | 36348 ft | 468 kts | 1° |
| 2026-04-25 00:41 | -39.22798 | -72.70171 | 36346 ft | 468 kts | 1° |
| 2026-04-25 00:42 | -39.16344 | -72.69011 | 36318 ft | 468 kts | 1° |
| 2026-04-25 00:42 | -39.09873 | -72.67840 | 36342 ft | 469 kts | 1° |
| 2026-04-25 00:43 | -39.03449 | -72.66685 | 36349 ft | 469 kts | 1° |
| 2026-04-25 00:43 | -38.96980 | -72.65529 | 36354 ft | 469 kts | 1° |
| 2026-04-25 00:44 | -38.90508 | -72.64319 | 36336 ft | 472 kts | 4° |
| 2026-04-25 00:44 | -38.84056 | -72.62492 | 36347 ft | 475 kts | 6° |
| 2026-04-25 00:45 | -38.77601 | -72.60628 | 36349 ft | 475 kts | 5° |
| 2026-04-25 00:45 | -38.71166 | -72.58782 | 36317 ft | 473 kts | 5° |
| 2026-04-25 00:46 | -38.64769 | -72.56943 | 36344 ft | 474 kts | 5° |
| 2026-04-25 00:47 | -38.55088 | -72.54236 | 36354 ft | 474 kts | 5° |
| 2026-04-25 00:47 | -38.48639 | -72.52414 | 36360 ft | 474 kts | 5° |
| 2026-04-25 00:48 | -38.42179 | -72.50581 | 36346 ft | 476 kts | 5° |
| 2026-04-25 00:48 | -38.35746 | -72.48748 | 36355 ft | 477 kts | 5° |
| 2026-04-25 00:49 | -38.29263 | -72.46918 | 36351 ft | 477 kts | 5° |
| 2026-04-25 00:49 | -38.22788 | -72.45092 | 36317 ft | 477 kts | 4° |
| 2026-04-25 00:50 | -38.16295 | -72.43283 | 36349 ft | 478 kts | 4° |
| 2026-04-25 00:50 | -38.09794 | -72.41467 | 36343 ft | 478 kts | 4° |
| 2026-04-25 00:51 | -38.03296 | -72.39644 | 36342 ft | 478 kts | 4° |
| 2026-04-25 00:51 | -37.96784 | -72.37828 | 36315 ft | 479 kts | 3° |
| 2026-04-25 00:52 | -37.90271 | -72.36016 | 36324 ft | 479 kts | 3° |
| 2026-04-25 00:52 | -37.83803 | -72.34213 | 36329 ft | 479 kts | 3° |
| 2026-04-25 00:53 | -37.77292 | -72.32406 | 36282 ft | 479 kts | 3° |
| 2026-04-25 00:53 | -37.70763 | -72.30607 | 36311 ft | 479 kts | 3° |
| 2026-04-25 00:54 | -37.64247 | -72.28792 | 36316 ft | 480 kts | 4° |
| 2026-04-25 00:54 | -37.57738 | -72.26820 | 36318 ft | 481 kts | 4° |
| 2026-04-25 00:55 | -37.51225 | -72.24819 | 36319 ft | 481 kts | 4° |
| 2026-04-25 00:55 | -37.44717 | -72.22831 | 36318 ft | 481 kts | 4° |
| 2026-04-25 00:56 | -37.38247 | -72.20878 | 36318 ft | 481 kts | 4° |
| 2026-04-25 00:56 | -37.31738 | -72.18904 | 36318 ft | 481 kts | 4° |
| 2026-04-25 00:57 | -37.25224 | -72.16943 | 36300 ft | 482 kts | 4° |
| 2026-04-25 00:57 | -37.18704 | -72.14973 | 36305 ft | 482 kts | 4° |
| 2026-04-25 00:58 | -37.12177 | -72.12979 | 36307 ft | 482 kts | 4° |
| 2026-04-25 00:58 | -37.05655 | -72.11011 | 36307 ft | 482 kts | 4° |
| 2026-04-25 00:59 | -37.00231 | -72.09359 | 36286 ft | 483 kts | 4° |
| 2026-04-25 00:59 | -36.92599 | -72.07070 | 36305 ft | 483 kts | 4° |
| 2026-04-25 01:00 | -36.86110 | -72.05120 | 36304 ft | 482 kts | 4° |
| 2026-04-25 01:00 | -36.79568 | -72.03156 | 36262 ft | 483 kts | 4° |
| 2026-04-25 01:01 | -36.74128 | -72.01539 | 36288 ft | 483 kts | 4° |
| 2026-04-25 01:01 | -36.67594 | -71.99604 | 36298 ft | 483 kts | 4° |
| 2026-04-25 01:02 | -36.61055 | -71.97667 | 36295 ft | 483 kts | 4° |
| 2026-04-25 01:02 | -36.54516 | -71.95715 | 36260 ft | 483 kts | 4° |
| 2026-04-25 01:03 | -36.47975 | -71.93768 | 36279 ft | 483 kts | 4° |
| 2026-04-25 01:03 | -36.41432 | -71.91840 | 36286 ft | 483 kts | 4° |
| 2026-04-25 01:04 | -36.34894 | -71.89898 | 36288 ft | 483 kts | 4° |
| 2026-04-25 01:04 | -36.28386 | -71.87968 | 36274 ft | 484 kts | 4° |
| 2026-04-25 01:05 | -36.21830 | -71.86037 | 36286 ft | 484 kts | 4° |
| 2026-04-25 01:05 | -36.15270 | -71.84127 | 36285 ft | 484 kts | 4° |
| 2026-04-25 01:06 | -36.08707 | -71.82190 | 36285 ft | 484 kts | 4° |
| 2026-04-25 01:06 | -36.02155 | -71.80260 | 36268 ft | 484 kts | 4° |
| 2026-04-25 01:07 | -35.95644 | -71.78330 | 36275 ft | 484 kts | 4° |
| 2026-04-25 01:07 | -35.89099 | -71.76402 | 36278 ft | 483 kts | 4° |
| 2026-04-25 01:08 | -35.82545 | -71.74485 | 36284 ft | 484 kts | 4° |
| 2026-04-25 01:08 | -35.75990 | -71.72584 | 36272 ft | 483 kts | 4° |
| 2026-04-25 01:09 | -35.69440 | -71.70686 | 36274 ft | 484 kts | 4° |
| 2026-04-25 01:09 | -35.62890 | -71.68781 | 36277 ft | 484 kts | 4° |
| 2026-04-25 01:10 | -35.56374 | -71.66898 | 36237 ft | 483 kts | 4° |
| 2026-04-25 01:10 | -35.49823 | -71.65002 | 36267 ft | 483 kts | 4° |
| 2026-04-25 01:11 | -35.43264 | -71.63096 | 36278 ft | 483 kts | 4° |
| 2026-04-25 01:11 | -35.36727 | -71.61205 | 36274 ft | 483 kts | 4° |
| 2026-04-25 01:12 | -35.30182 | -71.59361 | 36247 ft | 482 kts | 3° |
| 2026-04-25 01:12 | -35.23651 | -71.57518 | 36268 ft | 482 kts | 4° |
| 2026-04-25 01:13 | -35.17154 | -71.55654 | 36272 ft | 482 kts | 4° |
| 2026-04-25 01:13 | -35.10619 | -71.53779 | 36270 ft | 482 kts | 4° |
| 2026-04-25 01:14 | -35.04078 | -71.51905 | 36265 ft | 482 kts | 4° |
| 2026-04-25 01:14 | -34.97548 | -71.50038 | 36263 ft | 482 kts | 4° |
| 2026-04-25 01:15 | -34.91007 | -71.48172 | 36263 ft | 482 kts | 4° |
| 2026-04-25 01:15 | -34.84475 | -71.46310 | 36262 ft | 482 kts | 4° |
| 2026-04-25 01:16 | -34.77988 | -71.44464 | 36243 ft | 480 kts | 4° |
| 2026-04-25 01:16 | -34.71490 | -71.42615 | 36264 ft | 480 kts | 4° |
| 2026-04-25 01:17 | -34.64993 | -71.40690 | 36264 ft | 485 kts | 8° |
| 2026-04-25 01:17 | -34.58631 | -71.37660 | 36265 ft | 493 kts | 13° |
| 2026-04-25 01:18 | -34.52286 | -71.34501 | 36241 ft | 491 kts | 13° |
| 2026-04-25 01:18 | -34.45950 | -71.31375 | 36256 ft | 491 kts | 13° |
| 2026-04-25 01:19 | -34.39649 | -71.28286 | 36243 ft | 491 kts | 13° |
| 2026-04-25 01:19 | -34.33319 | -71.25184 | 36245 ft | 491 kts | 13° |
| 2026-04-25 01:20 | -34.26988 | -71.22086 | 36214 ft | 490 kts | 13° |
| 2026-04-25 01:20 | -34.20666 | -71.18997 | 36241 ft | 490 kts | 13° |
| 2026-04-25 01:21 | -34.14343 | -71.15907 | 36246 ft | 490 kts | 13° |
| 2026-04-25 01:21 | -34.08023 | -71.12830 | 36251 ft | 490 kts | 13° |
| 2026-04-25 01:22 | -34.01690 | -71.09753 | 36234 ft | 490 kts | 13° |
| 2026-04-25 01:22 | -33.95387 | -71.06687 | 36220 ft | 488 kts | 13° |
| 2026-04-25 01:23 | -33.89090 | -71.03630 | 36232 ft | 488 kts | 13° |
| 2026-04-25 01:23 | -33.82836 | -71.00594 | 36183 ft | 486 kts | 13° |
| 2026-04-25 01:24 | -33.76548 | -70.97523 | 36217 ft | 487 kts | 13° |
| 2026-04-25 01:24 | -33.70281 | -70.94481 | 36206 ft | 486 kts | 13° |
| 2026-04-25 01:25 | -33.63992 | -70.91455 | 36221 ft | 487 kts | 13° |
| 2026-04-25 01:25 | -33.57733 | -70.88460 | 36222 ft | 488 kts | 13° |
| 2026-04-25 01:25 | -33.54660 | -70.86595 | 36231 ft | 500 kts | 23° |
| 2026-04-25 01:26 | -33.51700 | -70.84396 | 36233 ft | 500 kts | 24° |
| 2026-04-25 01:26 | -33.45775 | -70.80028 | 36189 ft | 496 kts | 19° |
| 2026-04-25 01:26 | -33.42632 | -70.78599 | 36198 ft | 473 kts | 2° |
| 2026-04-25 01:27 | -33.39448 | -70.78250 | 36215 ft | 449 kts | 346° |
| 2026-04-25 01:27 | -33.36469 | -70.78945 | 36230 ft | 426 kts | 330° |
| 2026-04-25 01:27 | -33.33635 | -70.80026 | 36239 ft | 429 kts | 333° |
| 2026-04-25 01:28 | -33.25033 | -70.82960 | 36227 ft | 430 kts | 333° |
| 2026-04-25 01:28 | -33.19271 | -70.84886 | 36196 ft | 428 kts | 333° |
| 2026-04-25 01:29 | -33.13527 | -70.86776 | 36209 ft | 428 kts | 333° |
| 2026-04-25 01:29 | -33.07781 | -70.88660 | 36193 ft | 428 kts | 334° |
| 2026-04-25 01:30 | -33.02045 | -70.90574 | 36203 ft | 428 kts | 333° |
| 2026-04-25 01:30 | -32.96309 | -70.92496 | 36177 ft | 427 kts | 333° |
| 2026-04-25 01:31 | -32.90631 | -70.94379 | 36192 ft | 426 kts | 333° |
| 2026-04-25 01:31 | -32.84924 | -70.96265 | 36197 ft | 425 kts | 333° |
| 2026-04-25 01:32 | -32.79222 | -70.98152 | 36195 ft | 425 kts | 333° |
| 2026-04-25 01:32 | -32.73515 | -71.00039 | 36155 ft | 426 kts | 333° |
| 2026-04-25 01:33 | -32.67830 | -71.01898 | 36186 ft | 423 kts | 333° |
| 2026-04-25 01:33 | -32.62198 | -71.03732 | 36190 ft | 422 kts | 333° |
| 2026-04-25 01:34 | -32.56531 | -71.05579 | 36214 ft | 422 kts | 333° |
| 2026-04-25 01:34 | -32.50856 | -71.07432 | 36189 ft | 423 kts | 333° |
| 2026-04-25 01:35 | -32.45180 | -71.09286 | 36188 ft | 423 kts | 333° |
| 2026-04-25 01:35 | -32.39528 | -71.11129 | 36182 ft | 418 kts | 333° |
| 2026-04-25 01:36 | -32.33631 | -71.11860 | 36160 ft | 449 kts | 356° |
| 2026-04-25 01:36 | -32.30533 | -71.10958 | 35243 ft | 473 kts | 11° |
| 2026-04-25 01:36 | -32.27538 | -71.09054 | 34007 ft | 504 kts | 29° |
| 2026-04-25 01:37 | -32.24917 | -71.06177 | 32733 ft | 525 kts | 45° |
| 2026-04-25 01:37 | -32.22945 | -71.02565 | 31717 ft | 536 kts | 62° |
| 2026-04-25 01:37 | -32.21716 | -70.98395 | 30711 ft | 540 kts | 77° |
| 2026-04-25 01:37 | -32.21338 | -70.93969 | 29572 ft | 541 kts | 94° |
| 2026-04-25 01:38 | -32.21859 | -70.89615 | 28547 ft | 532 kts | 109° |
| 2026-04-25 01:38 | -32.23161 | -70.85581 | 27522 ft | 524 kts | 118° |
| 2026-04-25 01:38 | -32.24555 | -70.81597 | 26502 ft | 524 kts | 116° |
| 2026-04-25 01:38 | -32.26170 | -70.77795 | 25517 ft | 513 kts | 128° |
| 2026-04-25 01:39 | -32.28402 | -70.74590 | 24558 ft | 498 kts | 142° |
| 2026-04-25 01:39 | -32.31075 | -70.72092 | 23619 ft | 484 kts | 154° |
| 2026-04-25 01:39 | -32.34041 | -70.70342 | 22517 ft | 470 kts | 165° |
| 2026-04-25 01:39 | -32.37115 | -70.69363 | 21515 ft | 459 kts | 175° |
| 2026-04-25 01:40 | -32.40311 | -70.69101 | 20501 ft | 452 kts | 186° |
| 2026-04-25 01:40 | -32.43396 | -70.69415 | 19533 ft | 451 kts | 191° |
| 2026-04-25 01:40 | -32.46528 | -70.69848 | 18591 ft | 455 kts | 191° |
| 2026-04-25 01:40 | -32.49702 | -70.70293 | 17793 ft | 459 kts | 190° |
| 2026-04-25 01:41 | -32.52830 | -70.70716 | 17605 ft | 442 kts | 189° |
| 2026-04-25 01:41 | -32.55784 | -70.71088 | 17869 ft | 410 kts | 189° |
| 2026-04-25 01:41 | -32.58599 | -70.71414 | 18599 ft | 404 kts | 189° |
| 2026-04-25 01:41 | -32.61339 | -70.71712 | 18441 ft | 394 kts | 190° |
| 2026-04-25 01:42 | -32.64055 | -70.72091 | 17849 ft | 388 kts | 191° |
| 2026-04-25 01:42 | -32.66690 | -70.72477 | 17546 ft | 373 kts | 191° |
| 2026-04-25 01:42 | -32.69185 | -70.72831 | 17294 ft | 358 kts | 191° |
| 2026-04-25 01:42 | -32.71604 | -70.73157 | 17018 ft | 342 kts | 190° |
| 2026-04-25 01:43 | -32.73917 | -70.73459 | 16699 ft | 327 kts | 190° |
| 2026-04-25 01:43 | -32.76150 | -70.73752 | 16243 ft | 319 kts | 190° |
| 2026-04-25 01:43 | -32.78345 | -70.74042 | 15651 ft | 316 kts | 190° |
| 2026-04-25 01:43 | -32.80530 | -70.74333 | 15045 ft | 316 kts | 189° |
| 2026-04-25 01:44 | -32.82710 | -70.74621 | 14476 ft | 315 kts | 189° |
| 2026-04-25 01:44 | -32.84883 | -70.74908 | 13893 ft | 313 kts | 188° |
| 2026-04-25 01:44 | -32.87040 | -70.75194 | 13246 ft | 310 kts | 188° |
| 2026-04-25 01:44 | -32.89176 | -70.75476 | 12648 ft | 307 kts | 188° |
| 2026-04-25 01:45 | -32.91292 | -70.75758 | 12085 ft | 305 kts | 188° |
| 2026-04-25 01:45 | -32.93398 | -70.76040 | 11532 ft | 303 kts | 188° |
| 2026-04-25 01:45 | -32.95458 | -70.76317 | 10993 ft | 301 kts | 188° |
| 2026-04-25 01:45 | -32.97532 | -70.76594 | 10471 ft | 298 kts | 187° |
| 2026-04-25 01:46 | -32.99589 | -70.76867 | 9931 ft | 296 kts | 187° |
| 2026-04-25 01:46 | -33.01633 | -70.77138 | 9358 ft | 293 kts | 187° |
| 2026-04-25 01:46 | -33.03652 | -70.77407 | 8752 ft | 291 kts | 187° |
| 2026-04-25 01:46 | -33.05640 | -70.77669 | 8259 ft | 285 kts | 187° |
| 2026-04-25 01:47 | -33.07603 | -70.77929 | 7665 ft | 283 kts | 186° |
| 2026-04-25 01:47 | -33.09554 | -70.78189 | 7079 ft | 281 kts | 186° |
| 2026-04-25 01:47 | -33.11491 | -70.78449 | 6504 ft | 279 kts | 186° |
| 2026-04-25 01:47 | -33.12768 | -70.78622 | 6103 ft | 277 kts | 186° |
| 2026-04-25 01:48 | -33.14669 | -70.78876 | 5626 ft | 270 kts | 186° |
| 2026-04-25 01:48 | -33.16500 | -70.79115 | 5208 ft | 261 kts | 186° |
| 2026-04-25 01:48 | -33.18289 | -70.79396 | 4648 ft | 258 kts | 187° |
| 2026-04-25 01:48 | -33.20045 | -70.79707 | 4155 ft | 252 kts | 191° |
| 2026-04-25 01:49 | -33.21695 | -70.80375 | 3984 ft | 254 kts | 202° |
| 2026-04-25 01:49 | -33.23939 | -70.81137 | 3872 ft | 249 kts | 185° |
| 2026-04-25 01:49 | -33.25592 | -70.81125 | 3799 ft | 233 kts | 172° |
| 2026-04-25 01:49 | -33.26673 | -70.80915 | 3391 ft | 231 kts | 169° |
| 2026-04-25 01:50 | -33.28241 | -70.80850 | 3067 ft | 224 kts | 188° |
| 2026-04-25 01:50 | -33.29675 | -70.81250 | 3135 ft | 195 kts | 191° |
| 2026-04-25 01:50 | -33.30985 | -70.81106 | 3064 ft | 186 kts | 155° |
| 2026-04-25 01:50 | -33.32128 | -70.80630 | 2893 ft | 163 kts | 172° |
| 2026-04-25 01:51 | -33.33199 | -70.80577 | 2478 ft | 145 kts | 176° |
| 2026-04-25 01:51 | -33.34151 | -70.80528 | 2181 ft | 134 kts | 176° |
| 2026-04-25 01:51 | -33.35056 | -70.80472 | 1992 ft | 131 kts | 176° |
| 2026-04-25 01:51 | -33.35965 | -70.80426 | 1844 ft | 129 kts | 176° |
| 2026-04-25 01:52 | -33.36832 | -70.80388 | 1668 ft | 125 kts | 176° |
| 2026-04-25 01:52 | -33.37665 | -70.80350 | 1578 ft | 106 kts | 178° |
| 2026-04-25 01:52 | -33.38240 | -70.80315 | 1578 ft | 59 kts | 177° |
| 2026-04-25 01:52 | -33.38521 | -70.80300 | 1578 ft | 39 kts | 176° |
| 2026-04-25 01:53 | -33.38788 | -70.80291 | 1580 ft | 22 kts | 179° |
| 2026-04-25 01:53 | -33.38927 | -70.80284 | 1579 ft | 21 kts | 176° |
| 2026-04-25 01:53 | -33.39076 | -70.80274 | 1579 ft | 22 kts | 176° |
| 2026-04-25 01:53 | -33.39160 | -70.80267 | 1578 ft | 13 kts | 174° |
| 2026-04-25 01:54 | -33.39256 | -70.80241 | 1578 ft | 16 kts | 158° |
| 2026-04-25 01:54 | -33.39361 | -70.80181 | 1576 ft | 17 kts | 147° |
| 2026-04-25 01:54 | -33.39465 | -70.80098 | 1572 ft | 19 kts | 143° |
| 2026-04-25 01:54 | -33.39531 | -70.79965 | 1571 ft | 20 kts | 86° |
| 2026-04-25 01:55 | -33.39524 | -70.79788 | 1570 ft | 22 kts | 89° |
| 2026-04-25 01:55 | -33.39519 | -70.79603 | 1570 ft | 16 kts | 86° |
| 2026-04-25 01:55 | -33.39514 | -70.79488 | 1570 ft | 7 kts | 97° |
| 2026-04-25 01:55 | -33.39562 | -70.79456 | 1570 ft | 10 kts | 172° |
| 2026-04-25 01:56 | -33.39586 | -70.79453 | 1570 ft | 2 kts | 178° |
| 2026-04-25 01:56 | -33.39593 | -70.79453 | 1570 ft | 0 kts | 178° |